Mentasta Lake, Alaska
Current Conditions -  °F | °C
As of 1:53 PM on Wednesday 17 Dec 2014 (Local Time) from PAOR Reporting Station
Few Clouds Few Clouds  
Wind Chill: -10°   Ceiling: Unl
Heat Index: -10°   Visibility: 10mi
Dew Point: -14°   Wind: 0mph
Humidity: 82%   Direction: NA
Pressure: 29.62"   Gusts: NA
Location:  63.798°N, 142.321°W
Report Text: PAOR 172253Z 00000KT 10SM FEW065 FEW150 M23/M26 A2962 RMK AO2 SLP099 IC T12331256
Loading
Personal Weather Stations






























Interactive Weather Map New forecast layout! Learn more

10-Day Weather Forecast

Advertisements
Track Severe Weather on mobile